sensor_id;sensor_type;location;lat;lon;timestamp;temperature;humidity
59975;DHT22;62136;-35.664;-63.766;2023-06-14T00:00:33;19.40;38.50
59975;DHT22;62136;-35.664;-63.766;2023-06-14T00:03:01;19.20;38.80
59975;DHT22;62136;-35.664;-63.766;2023-06-14T00:05:30;19.30;39.40
59975;DHT22;62136;-35.664;-63.766;2023-06-14T00:07:59;19.20;39.80
59975;DHT22;62136;-35.664;-63.766;2023-06-14T00:10:27;19.20;37.60
59975;DHT22;62136;-35.664;-63.766;2023-06-14T00:12:57;19.10;37.90
59975;DHT22;62136;-35.664;-63.766;2023-06-14T00:15:26;19.10;38.10
59975;DHT22;62136;-35.664;-63.766;2023-06-14T00:17:53;19.10;38.70
59975;DHT22;62136;-35.664;-63.766;2023-06-14T00:20:21;19.10;38.90
59975;DHT22;62136;-35.664;-63.766;2023-06-14T00:22:48;19.10;39.20
59975;DHT22;62136;-35.664;-63.766;2023-06-14T00:25:16;19.10;39.30
59975;DHT22;62136;-35.664;-63.766;2023-06-14T00:27:43;19.10;39.70
59975;DHT22;62136;-35.664;-63.766;2023-06-14T00:30:11;19.10;39.80
59975;DHT22;62136;-35.664;-63.766;2023-06-14T00:32:38;19.10;40.10
59975;DHT22;62136;-35.664;-63.766;2023-06-14T00:35:05;19.10;40.20
59975;DHT22;62136;-35.664;-63.766;2023-06-14T00:37:34;19.10;40.40
59975;DHT22;62136;-35.664;-63.766;2023-06-14T00:42:31;19.00;40.70
59975;DHT22;62136;-35.664;-63.766;2023-06-14T00:44:59;19.00;40.60
59975;DHT22;62136;-35.664;-63.766;2023-06-14T00:47:26;19.00;41.10
59975;DHT22;62136;-35.664;-63.766;2023-06-14T00:49:53;19.00;41.20
59975;DHT22;62136;-35.664;-63.766;2023-06-14T00:52:23;19.00;41.20
59975;DHT22;62136;-35.664;-63.766;2023-06-14T00:54:50;19.00;41.30
59975;DHT22;62136;-35.664;-63.766;2023-06-14T00:57:18;19.00;41.40
59975;DHT22;62136;-35.664;-63.766;2023-06-14T00:59:48;19.00;41.30
59975;DHT22;62136;-35.664;-63.766;2023-06-14T01:02:16;18.90;41.50
59975;DHT22;62136;-35.664;-63.766;2023-06-14T01:04:50;19.00;41.30
59975;DHT22;62136;-35.664;-63.766;2023-06-14T01:07:23;18.90;41.70
59975;DHT22;62136;-35.664;-63.766;2023-06-14T01:15:21;18.90;41.30
59975;DHT22;62136;-35.664;-63.766;2023-06-14T01:17:50;18.90;41.30
59975;DHT22;62136;-35.664;-63.766;2023-06-14T01:20:20;18.80;41.40
59975;DHT22;62136;-35.664;-63.766;2023-06-14T01:22:54;18.80;41.20
59975;DHT22;62136;-35.664;-63.766;2023-06-14T01:25:22;18.70;40.90
59975;DHT22;62136;-35.664;-63.766;2023-06-14T01:27:55;18.70;40.80
59975;DHT22;62136;-35.664;-63.766;2023-06-14T01:30:24;18.70;40.70
59975;DHT22;62136;-35.664;-63.766;2023-06-14T01:32:54;18.70;40.60
59975;DHT22;62136;-35.664;-63.766;2023-06-14T01:35:22;18.60;40.80
59975;DHT22;62136;-35.664;-63.766;2023-06-14T01:37:49;18.60;40.40
59975;DHT22;62136;-35.664;-63.766;2023-06-14T01:40:18;18.60;40.30
59975;DHT22;62136;-35.664;-63.766;2023-06-14T01:42:47;18.60;40.20
59975;DHT22;62136;-35.664;-63.766;2023-06-14T01:45:16;18.50;40.30
59975;DHT22;62136;-35.664;-63.766;2023-06-14T01:47:44;18.50;40.30
59975;DHT22;62136;-35.664;-63.766;2023-06-14T01:50:12;18.50;40.20
59975;DHT22;62136;-35.664;-63.766;2023-06-14T01:52:39;18.50;40.00
59975;DHT22;62136;-35.664;-63.766;2023-06-14T01:55:10;18.40;40.10
59975;DHT22;62136;-35.664;-63.766;2023-06-14T01:57:37;18.40;40.10
59975;DHT22;62136;-35.664;-63.766;2023-06-14T02:00:05;18.40;40.10
59975;DHT22;62136;-35.664;-63.766;2023-06-14T02:02:39;18.30;39.80
59975;DHT22;62136;-35.664;-63.766;2023-06-14T02:05:06;18.30;39.80
59975;DHT22;62136;-35.664;-63.766;2023-06-14T02:07:34;18.30;39.70
59975;DHT22;62136;-35.664;-63.766;2023-06-14T02:10:04;18.30;39.60
59975;DHT22;62136;-35.664;-63.766;2023-06-14T02:12:32;18.30;39.50
59975;DHT22;62136;-35.664;-63.766;2023-06-14T02:15:05;18.30;39.60
59975;DHT22;62136;-35.664;-63.766;2023-06-14T02:17:33;18.20;39.50
59975;DHT22;62136;-35.664;-63.766;2023-06-14T02:20:06;18.20;39.70
59975;DHT22;62136;-35.664;-63.766;2023-06-14T02:22:34;18.20;39.70
59975;DHT22;62136;-35.664;-63.766;2023-06-14T02:25:02;18.20;39.50
59975;DHT22;62136;-35.664;-63.766;2023-06-14T02:27:29;18.10;39.30
59975;DHT22;62136;-35.664;-63.766;2023-06-14T02:29:56;18.10;39.50
59975;DHT22;62136;-35.664;-63.766;2023-06-14T02:32:26;18.10;39.60
59975;DHT22;62136;-35.664;-63.766;2023-06-14T02:34:54;18.10;39.30
59975;DHT22;62136;-35.664;-63.766;2023-06-14T02:37:24;18.10;39.50
59975;DHT22;62136;-35.664;-63.766;2023-06-14T02:39:51;18.10;39.20
59975;DHT22;62136;-35.664;-63.766;2023-06-14T02:42:21;18.00;39.30
59975;DHT22;62136;-35.664;-63.766;2023-06-14T02:44:48;18.00;39.30
59975;DHT22;62136;-35.664;-63.766;2023-06-14T02:47:18;18.00;39.50
59975;DHT22;62136;-35.664;-63.766;2023-06-14T02:49:48;18.00;39.30
59975;DHT22;62136;-35.664;-63.766;2023-06-14T02:52:15;17.90;39.30
59975;DHT22;62136;-35.664;-63.766;2023-06-14T02:54:42;17.90;39.10
59975;DHT22;62136;-35.664;-63.766;2023-06-14T02:57:10;17.90;39.20
59975;DHT22;62136;-35.664;-63.766;2023-06-14T02:59:40;17.80;39.20
59975;DHT22;62136;-35.664;-63.766;2023-06-14T03:02:07;17.80;39.10
59975;DHT22;62136;-35.664;-63.766;2023-06-14T03:04:34;17.90;39.20
59975;DHT22;62136;-35.664;-63.766;2023-06-14T03:07:04;17.80;39.30
59975;DHT22;62136;-35.664;-63.766;2023-06-14T03:09:39;17.80;39.20
59975;DHT22;62136;-35.664;-63.766;2023-06-14T03:12:08;17.70;39.10
59975;DHT22;62136;-35.664;-63.766;2023-06-14T03:14:42;17.70;39.20
59975;DHT22;62136;-35.664;-63.766;2023-06-14T03:17:12;17.70;39.30
59975;DHT22;62136;-35.664;-63.766;2023-06-14T03:19:43;17.70;39.20
59975;DHT22;62136;-35.664;-63.766;2023-06-14T03:22:10;17.60;39.30
59975;DHT22;62136;-35.664;-63.766;2023-06-14T03:24:40;17.60;39.10
59975;DHT22;62136;-35.664;-63.766;2023-06-14T03:27:11;17.60;39.10
59975;DHT22;62136;-35.664;-63.766;2023-06-14T03:29:38;17.60;39.30
59975;DHT22;62136;-35.664;-63.766;2023-06-14T03:32:06;17.60;39.20
59975;DHT22;62136;-35.664;-63.766;2023-06-14T03:34:33;17.60;39.30
59975;DHT22;62136;-35.664;-63.766;2023-06-14T03:37:04;17.50;39.20
59975;DHT22;62136;-35.664;-63.766;2023-06-14T03:39:31;17.50;39.00
59975;DHT22;62136;-35.664;-63.766;2023-06-14T03:41:58;17.50;39.10
59975;DHT22;62136;-35.664;-63.766;2023-06-14T03:44:28;17.50;39.10
59975;DHT22;62136;-35.664;-63.766;2023-06-14T03:46:55;17.50;39.20
59975;DHT22;62136;-35.664;-63.766;2023-06-14T03:49:31;17.50;39.30
59975;DHT22;62136;-35.664;-63.766;2023-06-14T03:51:58;17.40;39.30
59975;DHT22;62136;-35.664;-63.766;2023-06-14T03:54:25;17.40;39.10
59975;DHT22;62136;-35.664;-63.766;2023-06-14T03:56:53;17.40;39.20
59975;DHT22;62136;-35.664;-63.766;2023-06-14T03:59:20;17.40;39.30
59975;DHT22;62136;-35.664;-63.766;2023-06-14T04:01:47;17.40;39.00
59975;DHT22;62136;-35.664;-63.766;2023-06-14T04:04:15;17.30;39.10
59975;DHT22;62136;-35.664;-63.766;2023-06-14T04:06:45;17.30;39.20
59975;DHT22;62136;-35.664;-63.766;2023-06-14T04:09:14;17.30;39.30
59975;DHT22;62136;-35.664;-63.766;2023-06-14T04:11:42;17.30;39.30
59975;DHT22;62136;-35.664;-63.766;2023-06-14T04:14:09;17.20;39.10
59975;DHT22;62136;-35.664;-63.766;2023-06-14T04:16:36;17.20;39.10
59975;DHT22;62136;-35.664;-63.766;2023-06-14T04:19:06;17.20;39.30
59975;DHT22;62136;-35.664;-63.766;2023-06-14T04:21:36;17.20;39.00
59975;DHT22;62136;-35.664;-63.766;2023-06-14T04:24:03;17.20;39.20
59975;DHT22;62136;-35.664;-63.766;2023-06-14T04:26:31;17.10;39.20
59975;DHT22;62136;-35.664;-63.766;2023-06-14T04:29:02;17.20;39.30
59975;DHT22;62136;-35.664;-63.766;2023-06-14T04:31:34;17.10;39.20
59975;DHT22;62136;-35.664;-63.766;2023-06-14T04:34:07;17.10;39.00
59975;DHT22;62136;-35.664;-63.766;2023-06-14T04:36:35;17.10;39.30
59975;DHT22;62136;-35.664;-63.766;2023-06-14T04:39:05;17.10;39.40
59975;DHT22;62136;-35.664;-63.766;2023-06-14T04:41:32;17.10;39.30
59975;DHT22;62136;-35.664;-63.766;2023-06-14T04:44:00;17.00;38.90
59975;DHT22;62136;-35.664;-63.766;2023-06-14T04:46:29;17.00;39.20
59975;DHT22;62136;-35.664;-63.766;2023-06-14T04:48:56;17.00;38.80
59975;DHT22;62136;-35.664;-63.766;2023-06-14T04:51:24;17.00;39.00
59975;DHT22;62136;-35.664;-63.766;2023-06-14T04:53:59;17.00;39.10
59975;DHT22;62136;-35.664;-63.766;2023-06-14T04:56:27;16.90;39.00
59975;DHT22;62136;-35.664;-63.766;2023-06-14T04:58:55;16.90;39.00
59975;DHT22;62136;-35.664;-63.766;2023-06-14T05:01:23;16.90;39.10
59975;DHT22;62136;-35.664;-63.766;2023-06-14T05:03:50;16.90;39.30
59975;DHT22;62136;-35.664;-63.766;2023-06-14T05:06:18;16.80;39.20
59975;DHT22;62136;-35.664;-63.766;2023-06-14T05:08:45;16.80;39.30
59975;DHT22;62136;-35.664;-63.766;2023-06-14T05:11:12;16.80;39.30
59975;DHT22;62136;-35.664;-63.766;2023-06-14T05:13:39;16.80;39.30
59975;DHT22;62136;-35.664;-63.766;2023-06-14T05:16:07;16.80;38.90
59975;DHT22;62136;-35.664;-63.766;2023-06-14T05:18:34;16.80;39.20
59975;DHT22;62136;-35.664;-63.766;2023-06-14T05:21:01;16.80;39.10
59975;DHT22;62136;-35.664;-63.766;2023-06-14T05:23:30;16.70;39.10
59975;DHT22;62136;-35.664;-63.766;2023-06-14T05:25:57;16.70;39.10
59975;DHT22;62136;-35.664;-63.766;2023-06-14T05:28:24;16.70;39.20
59975;DHT22;62136;-35.664;-63.766;2023-06-14T05:30:52;16.70;39.20
59975;DHT22;62136;-35.664;-63.766;2023-06-14T05:33:19;16.70;39.10
59975;DHT22;62136;-35.664;-63.766;2023-06-14T05:35:46;16.70;39.10
59975;DHT22;62136;-35.664;-63.766;2023-06-14T05:38:13;16.60;39.10
59975;DHT22;62136;-35.664;-63.766;2023-06-14T05:40:40;16.60;39.20
59975;DHT22;62136;-35.664;-63.766;2023-06-14T05:43:07;16.60;39.30
59975;DHT22;62136;-35.664;-63.766;2023-06-14T05:45:34;16.60;39.20
59975;DHT22;62136;-35.664;-63.766;2023-06-14T05:48:01;16.60;38.90
59975;DHT22;62136;-35.664;-63.766;2023-06-14T05:50:28;16.60;39.20
59975;DHT22;62136;-35.664;-63.766;2023-06-14T05:52:55;16.60;39.30
59975;DHT22;62136;-35.664;-63.766;2023-06-14T05:55:22;16.50;39.10
59975;DHT22;62136;-35.664;-63.766;2023-06-14T05:57:49;16.50;39.20
59975;DHT22;62136;-35.664;-63.766;2023-06-14T06:00:17;16.50;39.10
59975;DHT22;62136;-35.664;-63.766;2023-06-14T06:02:44;16.50;39.20
59975;DHT22;62136;-35.664;-63.766;2023-06-14T06:05:12;16.50;39.30
59975;DHT22;62136;-35.664;-63.766;2023-06-14T06:07:40;16.40;39.30
59975;DHT22;62136;-35.664;-63.766;2023-06-14T06:10:07;16.40;39.10
59975;DHT22;62136;-35.664;-63.766;2023-06-14T06:15:19;16.40;39.10
59975;DHT22;62136;-35.664;-63.766;2023-06-14T06:17:46;16.40;39.40
59975;DHT22;62136;-35.664;-63.766;2023-06-14T06:20:13;16.40;39.40
59975;DHT22;62136;-35.664;-63.766;2023-06-14T06:22:40;16.30;39.20
59975;DHT22;62136;-35.664;-63.766;2023-06-14T06:25:08;16.30;39.20
59975;DHT22;62136;-35.664;-63.766;2023-06-14T06:27:35;16.30;39.30
59975;DHT22;62136;-35.664;-63.766;2023-06-14T06:30:07;16.30;39.30
59975;DHT22;62136;-35.664;-63.766;2023-06-14T06:32:34;16.30;39.40
59975;DHT22;62136;-35.664;-63.766;2023-06-14T06:35:01;16.30;39.30
59975;DHT22;62136;-35.664;-63.766;2023-06-14T06:37:28;16.30;39.40
59975;DHT22;62136;-35.664;-63.766;2023-06-14T06:39:55;16.20;39.40
59975;DHT22;62136;-35.664;-63.766;2023-06-14T06:42:22;16.20;39.40
59975;DHT22;62136;-35.664;-63.766;2023-06-14T06:44:49;16.20;39.40
59975;DHT22;62136;-35.664;-63.766;2023-06-14T06:47:16;16.20;39.40
59975;DHT22;62136;-35.664;-63.766;2023-06-14T06:49:43;16.20;39.30
59975;DHT22;62136;-35.664;-63.766;2023-06-14T06:52:10;16.20;39.40
59975;DHT22;62136;-35.664;-63.766;2023-06-14T06:54:37;16.10;39.40
59975;DHT22;62136;-35.664;-63.766;2023-06-14T06:57:04;16.10;39.50
59975;DHT22;62136;-35.664;-63.766;2023-06-14T06:59:32;16.10;39.40
59975;DHT22;62136;-35.664;-63.766;2023-06-14T07:01:59;16.10;39.50
59975;DHT22;62136;-35.664;-63.766;2023-06-14T07:04:26;16.10;39.50
59975;DHT22;62136;-35.664;-63.766;2023-06-14T07:06:53;16.10;39.60
59975;DHT22;62136;-35.664;-63.766;2023-06-14T07:09:20;16.00;39.50
59975;DHT22;62136;-35.664;-63.766;2023-06-14T07:11:48;16.00;39.40
59975;DHT22;62136;-35.664;-63.766;2023-06-14T07:14:15;16.00;39.50
59975;DHT22;62136;-35.664;-63.766;2023-06-14T07:16:42;16.00;39.40
59975;DHT22;62136;-35.664;-63.766;2023-06-14T07:19:09;16.00;39.50
59975;DHT22;62136;-35.664;-63.766;2023-06-14T07:21:36;15.90;39.50
59975;DHT22;62136;-35.664;-63.766;2023-06-14T07:24:07;15.90;39.40
59975;DHT22;62136;-35.664;-63.766;2023-06-14T07:26:34;15.90;39.30
59975;DHT22;62136;-35.664;-63.766;2023-06-14T07:29:02;15.90;39.50
59975;DHT22;62136;-35.664;-63.766;2023-06-14T07:31:29;15.80;39.50
59975;DHT22;62136;-35.664;-63.766;2023-06-14T07:33:56;15.80;39.40
59975;DHT22;62136;-35.664;-63.766;2023-06-14T07:36:23;15.80;39.30
59975;DHT22;62136;-35.664;-63.766;2023-06-14T07:38:50;15.80;39.40
59975;DHT22;62136;-35.664;-63.766;2023-06-14T07:41:18;15.80;39.40
59975;DHT22;62136;-35.664;-63.766;2023-06-14T07:43:45;15.80;39.70
59975;DHT22;62136;-35.664;-63.766;2023-06-14T07:46:12;15.80;39.50
59975;DHT22;62136;-35.664;-63.766;2023-06-14T07:48:39;15.70;39.50
59975;DHT22;62136;-35.664;-63.766;2023-06-14T07:51:06;15.80;39.40
59975;DHT22;62136;-35.664;-63.766;2023-06-14T07:53:33;15.70;39.40
59975;DHT22;62136;-35.664;-63.766;2023-06-14T07:56:00;15.70;39.40
59975;DHT22;62136;-35.664;-63.766;2023-06-14T07:58:28;15.70;39.40
59975;DHT22;62136;-35.664;-63.766;2023-06-14T08:00:55;15.70;39.30
59975;DHT22;62136;-35.664;-63.766;2023-06-14T08:03:23;15.70;39.50
59975;DHT22;62136;-35.664;-63.766;2023-06-14T08:05:50;15.70;39.50
59975;DHT22;62136;-35.664;-63.766;2023-06-14T08:08:17;15.60;39.30
59975;DHT22;62136;-35.664;-63.766;2023-06-14T08:10:44;15.60;39.50
59975;DHT22;62136;-35.664;-63.766;2023-06-14T08:13:12;15.60;39.60
59975;DHT22;62136;-35.664;-63.766;2023-06-14T08:15:39;15.60;39.50
59975;DHT22;62136;-35.664;-63.766;2023-06-14T08:18:06;15.60;39.50
59975;DHT22;62136;-35.664;-63.766;2023-06-14T08:20:33;15.50;39.40
59975;DHT22;62136;-35.664;-63.766;2023-06-14T08:23:03;15.50;39.50
59975;DHT22;62136;-35.664;-63.766;2023-06-14T08:25:30;15.50;39.50
59975;DHT22;62136;-35.664;-63.766;2023-06-14T08:27:58;15.50;39.50
59975;DHT22;62136;-35.664;-63.766;2023-06-14T08:30:26;15.50;39.20
59975;DHT22;62136;-35.664;-63.766;2023-06-14T08:32:53;15.50;39.50
59975;DHT22;62136;-35.664;-63.766;2023-06-14T08:35:22;15.40;39.40
59975;DHT22;62136;-35.664;-63.766;2023-06-14T08:37:49;15.40;39.40
59975;DHT22;62136;-35.664;-63.766;2023-06-14T08:40:21;15.40;39.40
59975;DHT22;62136;-35.664;-63.766;2023-06-14T08:42:53;15.50;39.50
59975;DHT22;62136;-35.664;-63.766;2023-06-14T08:45:24;15.40;39.50
59975;DHT22;62136;-35.664;-63.766;2023-06-14T08:47:52;15.40;39.50
59975;DHT22;62136;-35.664;-63.766;2023-06-14T08:50:24;15.30;39.50
59975;DHT22;62136;-35.664;-63.766;2023-06-14T08:52:59;15.40;39.40
59975;DHT22;62136;-35.664;-63.766;2023-06-14T08:55:29;15.30;39.40
59975;DHT22;62136;-35.664;-63.766;2023-06-14T08:58:14;15.30;39.40
59975;DHT22;62136;-35.664;-63.766;2023-06-14T09:00:43;15.30;39.40
59975;DHT22;62136;-35.664;-63.766;2023-06-14T09:03:10;15.30;39.50
59975;DHT22;62136;-35.664;-63.766;2023-06-14T09:05:39;15.20;39.50
59975;DHT22;62136;-35.664;-63.766;2023-06-14T09:08:06;15.30;39.60
59975;DHT22;62136;-35.664;-63.766;2023-06-14T09:10:34;15.30;39.50
59975;DHT22;62136;-35.664;-63.766;2023-06-14T09:13:03;15.20;39.40
59975;DHT22;62136;-35.664;-63.766;2023-06-14T09:15:31;15.20;39.50
59975;DHT22;62136;-35.664;-63.766;2023-06-14T09:18:00;15.20;39.40
59975;DHT22;62136;-35.664;-63.766;2023-06-14T09:20:30;15.20;39.50
59975;DHT22;62136;-35.664;-63.766;2023-06-14T09:22:57;15.20;39.40
59975;DHT22;62136;-35.664;-63.766;2023-06-14T09:25:24;15.10;39.50
59975;DHT22;62136;-35.664;-63.766;2023-06-14T09:27:53;15.10;39.40
59975;DHT22;62136;-35.664;-63.766;2023-06-14T09:30:23;15.10;39.50
59975;DHT22;62136;-35.664;-63.766;2023-06-14T09:32:51;15.00;39.40
59975;DHT22;62136;-35.664;-63.766;2023-06-14T09:35:18;15.00;39.50
59975;DHT22;62136;-35.664;-63.766;2023-06-14T09:37:45;15.00;39.50
59975;DHT22;62136;-35.664;-63.766;2023-06-14T09:40:12;15.00;39.50
59975;DHT22;62136;-35.664;-63.766;2023-06-14T09:42:39;15.00;39.40
59975;DHT22;62136;-35.664;-63.766;2023-06-14T09:45:08;14.90;39.40
59975;DHT22;62136;-35.664;-63.766;2023-06-14T09:47:39;15.00;39.50
59975;DHT22;62136;-35.664;-63.766;2023-06-14T09:50:06;15.00;39.40
59975;DHT22;62136;-35.664;-63.766;2023-06-14T09:52:34;14.90;39.30
59975;DHT22;62136;-35.664;-63.766;2023-06-14T09:55:07;14.90;40.00
59975;DHT22;62136;-35.664;-63.766;2023-06-14T09:57:41;14.90;39.50
59975;DHT22;62136;-35.664;-63.766;2023-06-14T10:00:13;14.90;39.40
59975;DHT22;62136;-35.664;-63.766;2023-06-14T10:02:43;14.90;39.40
59975;DHT22;62136;-35.664;-63.766;2023-06-14T10:05:16;14.80;39.30
59975;DHT22;62136;-35.664;-63.766;2023-06-14T10:07:59;14.80;39.10
59975;DHT22;62136;-35.664;-63.766;2023-06-14T10:10:26;15.30;38.40
59975;DHT22;62136;-35.664;-63.766;2023-06-14T10:12:53;15.70;37.60
59975;DHT22;62136;-35.664;-63.766;2023-06-14T10:23:45;17.70;34.90
59975;DHT22;62136;-35.664;-63.766;2023-06-14T10:26:24;18.00;34.60
59975;DHT22;62136;-35.664;-63.766;2023-06-14T10:29:09;18.40;34.40
59975;DHT22;62136;-35.664;-63.766;2023-06-14T10:31:53;18.80;34.30
59975;DHT22;62136;-35.664;-63.766;2023-06-14T10:34:28;19.00;34.10
59975;DHT22;62136;-35.664;-63.766;2023-06-14T10:37:10;19.20;34.30
59975;DHT22;62136;-35.664;-63.766;2023-06-14T10:39:42;19.40;34.30
59975;DHT22;62136;-35.664;-63.766;2023-06-14T10:42:12;19.60;34.50
59975;DHT22;62136;-35.664;-63.766;2023-06-14T10:44:41;19.70;34.60
59975;DHT22;62136;-35.664;-63.766;2023-06-14T10:47:25;19.90;34.70
59975;DHT22;62136;-35.664;-63.766;2023-06-14T10:50:07;20.00;34.90
59975;DHT22;62136;-35.664;-63.766;2023-06-14T10:52:39;20.10;35.00
59975;DHT22;62136;-35.664;-63.766;2023-06-14T10:55:11;20.30;35.20
59975;DHT22;62136;-35.664;-63.766;2023-06-14T10:57:48;20.30;35.30
59975;DHT22;62136;-35.664;-63.766;2023-06-14T11:00:22;20.50;35.40
59975;DHT22;62136;-35.664;-63.766;2023-06-14T11:05:55;20.70;35.60
59975;DHT22;62136;-35.664;-63.766;2023-06-14T11:08:45;20.80;35.80
59975;DHT22;62136;-35.664;-63.766;2023-06-14T11:11:19;20.90;36.00
59975;DHT22;62136;-35.664;-63.766;2023-06-14T11:13:50;20.90;36.30
59975;DHT22;62136;-35.664;-63.766;2023-06-14T11:16:18;20.90;36.40
59975;DHT22;62136;-35.664;-63.766;2023-06-14T11:18:47;21.20;36.60
59975;DHT22;62136;-35.664;-63.766;2023-06-14T11:21:19;21.20;36.60
59975;DHT22;62136;-35.664;-63.766;2023-06-14T11:23:51;21.30;36.70
59975;DHT22;62136;-35.664;-63.766;2023-06-14T11:26:30;21.30;37.00
59975;DHT22;62136;-35.664;-63.766;2023-06-14T11:29:02;21.40;37.20
59975;DHT22;62136;-35.664;-63.766;2023-06-14T11:31:36;21.40;37.40
59975;DHT22;62136;-35.664;-63.766;2023-06-14T11:34:04;21.50;37.70
59975;DHT22;62136;-35.664;-63.766;2023-06-14T11:36:34;21.50;37.90
59975;DHT22;62136;-35.664;-63.766;2023-06-14T11:39:06;21.60;38.10
59975;DHT22;62136;-35.664;-63.766;2023-06-14T11:41:44;21.70;38.40
59975;DHT22;62136;-35.664;-63.766;2023-06-14T11:44:12;21.70;38.70
59975;DHT22;62136;-35.664;-63.766;2023-06-14T11:46:39;21.80;38.80
59975;DHT22;62136;-35.664;-63.766;2023-06-14T11:49:07;21.90;38.90
59975;DHT22;62136;-35.664;-63.766;2023-06-14T11:51:36;21.90;38.90
59975;DHT22;62136;-35.664;-63.766;2023-06-14T11:54:06;22.10;38.90
59975;DHT22;62136;-35.664;-63.766;2023-06-14T11:56:36;22.10;39.00
59975;DHT22;62136;-35.664;-63.766;2023-06-14T11:59:06;22.10;39.10
59975;DHT22;62136;-35.664;-63.766;2023-06-14T12:01:36;22.20;39.30
59975;DHT22;62136;-35.664;-63.766;2023-06-14T12:04:06;22.30;39.50
59975;DHT22;62136;-35.664;-63.766;2023-06-14T12:06:34;22.30;39.70
59975;DHT22;62136;-35.664;-63.766;2023-06-14T12:09:06;22.30;40.10
59975;DHT22;62136;-35.664;-63.766;2023-06-14T12:11:39;22.40;40.20
59975;DHT22;62136;-35.664;-63.766;2023-06-14T12:14:08;22.50;40.50
59975;DHT22;62136;-35.664;-63.766;2023-06-14T12:16:38;22.50;40.80
59975;DHT22;62136;-35.664;-63.766;2023-06-14T12:19:17;22.60;41.20
59975;DHT22;62136;-35.664;-63.766;2023-06-14T12:21:48;22.70;41.30
59975;DHT22;62136;-35.664;-63.766;2023-06-14T12:24:15;22.80;41.60
59975;DHT22;62136;-35.664;-63.766;2023-06-14T12:26:42;22.90;41.80
59975;DHT22;62136;-35.664;-63.766;2023-06-14T12:29:10;22.80;42.00
59975;DHT22;62136;-35.664;-63.766;2023-06-14T12:31:38;22.60;42.90
59975;DHT22;62136;-35.664;-63.766;2023-06-14T12:34:08;22.30;45.60
59975;DHT22;62136;-35.664;-63.766;2023-06-14T12:36:36;21.90;46.20
59975;DHT22;62136;-35.664;-63.766;2023-06-14T12:39:08;21.70;46.30
59975;DHT22;62136;-35.664;-63.766;2023-06-14T12:41:35;21.80;47.00
59975;DHT22;62136;-35.664;-63.766;2023-06-14T12:44:03;21.90;46.20
59975;DHT22;62136;-35.664;-63.766;2023-06-14T12:46:33;22.10;45.00
59975;DHT22;62136;-35.664;-63.766;2023-06-14T12:49:09;22.20;44.60
59975;DHT22;62136;-35.664;-63.766;2023-06-14T12:51:38;22.30;44.60
59975;DHT22;62136;-35.664;-63.766;2023-06-14T12:54:05;22.50;44.70
59975;DHT22;62136;-35.664;-63.766;2023-06-14T12:56:33;22.80;44.50
59975;DHT22;62136;-35.664;-63.766;2023-06-14T12:59:01;22.80;44.50
59975;DHT22;62136;-35.664;-63.766;2023-06-14T13:01:30;22.70;44.50
59975;DHT22;62136;-35.664;-63.766;2023-06-14T13:03:57;22.40;46.90
59975;DHT22;62136;-35.664;-63.766;2023-06-14T13:06:24;22.10;48.10
59975;DHT22;62136;-35.664;-63.766;2023-06-14T13:08:51;21.90;47.90
59975;DHT22;62136;-35.664;-63.766;2023-06-14T13:11:21;21.80;48.70
59975;DHT22;62136;-35.664;-63.766;2023-06-14T13:13:48;22.00;48.90
59975;DHT22;62136;-35.664;-63.766;2023-06-14T13:16:15;22.40;48.80
59975;DHT22;62136;-35.664;-63.766;2023-06-14T13:18:42;22.60;48.40
59975;DHT22;62136;-35.664;-63.766;2023-06-14T13:21:12;23.00;48.00
59975;DHT22;62136;-35.664;-63.766;2023-06-14T13:23:39;23.00;47.90
59975;DHT22;62136;-35.664;-63.766;2023-06-14T13:26:09;22.80;48.30
59975;DHT22;62136;-35.664;-63.766;2023-06-14T13:28:36;22.60;51.10
59975;DHT22;62136;-35.664;-63.766;2023-06-14T13:31:03;22.30;52.20
59975;DHT22;62136;-35.664;-63.766;2023-06-14T13:33:30;22.00;54.00
59975;DHT22;62136;-35.664;-63.766;2023-06-14T13:35:58;21.80;53.00
59975;DHT22;62136;-35.664;-63.766;2023-06-14T13:38:25;22.10;53.00
59975;DHT22;62136;-35.664;-63.766;2023-06-14T13:40:53;22.40;52.70
59975;DHT22;62136;-35.664;-63.766;2023-06-14T13:43:23;22.90;51.50
59975;DHT22;62136;-35.664;-63.766;2023-06-14T13:45:50;23.10;50.80
59975;DHT22;62136;-35.664;-63.766;2023-06-14T13:48:21;23.00;51.10
59975;DHT22;62136;-35.664;-63.766;2023-06-14T13:50:49;22.70;52.60
59975;DHT22;62136;-35.664;-63.766;2023-06-14T13:53:16;22.50;54.50
59975;DHT22;62136;-35.664;-63.766;2023-06-14T13:55:43;22.30;56.10
59975;DHT22;62136;-35.664;-63.766;2023-06-14T13:58:10;21.90;56.90
59975;DHT22;62136;-35.664;-63.766;2023-06-14T14:00:37;21.70;55.20
59975;DHT22;62136;-35.664;-63.766;2023-06-14T14:03:07;21.90;54.90
59975;DHT22;62136;-35.664;-63.766;2023-06-14T14:05:35;22.20;54.90
59975;DHT22;62136;-35.664;-63.766;2023-06-14T14:08:05;22.70;53.70
59975;DHT22;62136;-35.664;-63.766;2023-06-14T14:10:33;22.90;52.70
59975;DHT22;62136;-35.664;-63.766;2023-06-14T14:13:00;22.90;52.80
59975;DHT22;62136;-35.664;-63.766;2023-06-14T14:15:30;22.70;53.40
59975;DHT22;62136;-35.664;-63.766;2023-06-14T14:18:04;22.50;54.10
59975;DHT22;62136;-35.664;-63.766;2023-06-14T14:20:31;22.30;56.70
59975;DHT22;62136;-35.664;-63.766;2023-06-14T14:22:58;22.00;61.30
59975;DHT22;62136;-35.664;-63.766;2023-06-14T14:25:26;21.70;57.20
59975;DHT22;62136;-35.664;-63.766;2023-06-14T14:27:53;21.90;56.70
59975;DHT22;62136;-35.664;-63.766;2023-06-14T14:30:21;22.20;56.00
59975;DHT22;62136;-35.664;-63.766;2023-06-14T14:32:50;22.60;55.00
59975;DHT22;62136;-35.664;-63.766;2023-06-14T14:35:20;22.90;54.00
59975;DHT22;62136;-35.664;-63.766;2023-06-14T14:37:48;22.80;54.40
59975;DHT22;62136;-35.664;-63.766;2023-06-14T14:40:16;22.70;54.60
59975;DHT22;62136;-35.664;-63.766;2023-06-14T14:42:43;22.60;58.20
59975;DHT22;62136;-35.664;-63.766;2023-06-14T14:45:10;22.30;60.00
59975;DHT22;62136;-35.664;-63.766;2023-06-14T14:47:40;22.10;62.10
59975;DHT22;62136;-35.664;-63.766;2023-06-14T14:50:07;21.80;63.40
59975;DHT22;62136;-35.664;-63.766;2023-06-14T14:52:36;21.70;58.60
59975;DHT22;62136;-35.664;-63.766;2023-06-14T14:55:03;21.90;58.00
59975;DHT22;62136;-35.664;-63.766;2023-06-14T14:57:31;22.30;56.30
59975;DHT22;62136;-35.664;-63.766;2023-06-14T14:59:59;22.80;55.10
59975;DHT22;62136;-35.664;-63.766;2023-06-14T15:02:26;22.80;54.10
59975;DHT22;62136;-35.664;-63.766;2023-06-14T15:04:53;22.90;54.70
59975;DHT22;62136;-35.664;-63.766;2023-06-14T15:07:22;22.70;56.50
59975;DHT22;62136;-35.664;-63.766;2023-06-14T15:09:53;22.60;60.30
59975;DHT22;62136;-35.664;-63.766;2023-06-14T15:12:20;22.40;62.20
59975;DHT22;62136;-35.664;-63.766;2023-06-14T15:14:52;22.10;63.30
59975;DHT22;62136;-35.664;-63.766;2023-06-14T15:17:21;22.00;64.30
59975;DHT22;62136;-35.664;-63.766;2023-06-14T15:19:52;21.80;60.20